Time;durP1;ratioP1;P1;durP2;ratioP2;P2;SDS_P1;SDS_P2;PMS_P1;PMS_P2;Temp;Humidity;BMP_temperature;BMP_pressure;BME280_temperature;BME280_humidity;BME280_pressure;Samples;Min_cycle;Max_cycle;Signal;HPM_P1;HPM_P2
2021/11/02 00:01:05;;;;;;;11.80;3.50;;;7.00;86.30;;;;;;5015283;28;20231;-83
2021/11/02 00:03:32;;;;;;;12.77;3.30;;;7.00;86.50;;;;;;5033099;28;20179;-83
2021/11/02 00:05:57;;;;;;;8.40;3.03;;;7.00;86.80;;;;;;5032929;28;20231;-83
2021/11/02 00:08:23;;;;;;;6.53;3.13;;;7.00;87.00;;;;;;5015392;28;20215;-83
2021/11/02 00:10:48;;;;;;;10.37;3.17;;;7.00;86.90;;;;;;5033352;28;20234;-83
2021/11/02 00:13:17;;;;;;;9.07;3.00;;;6.90;87.00;;;;;;5032989;28;20180;-83
2021/11/02 00:15:51;;;;;;;9.40;2.97;;;6.90;86.90;;;;;;5033398;28;20247;-84
2021/11/02 00:18:41;;;;;;;6.53;2.80;;;7.00;86.90;;;;;;5032610;28;20739;-83
2021/11/02 00:21:08;;;;;;;8.57;2.83;;;7.00;86.90;;;;;;5032896;28;20185;-84
2021/11/02 00:23:38;;;;;;;12.73;3.03;;;6.90;86.80;;;;;;5033145;28;20172;-84
2021/11/02 00:26:12;;;;;;;10.00;3.10;;;7.00;86.80;;;;;;5015056;28;20220;-83
2021/11/02 00:28:38;;;;;;;6.53;3.40;;;7.00;86.90;;;;;;5015184;28;20165;-83
2021/11/02 00:31:04;;;;;;;7.00;2.90;;;6.90;86.90;;;;;;5015194;28;20192;-83
2021/11/02 00:33:30;;;;;;;6.60;2.63;;;7.00;86.80;;;;;;5032876;28;20740;-83
2021/11/02 00:35:57;;;;;;;5.97;2.73;;;7.00;86.90;;;;;;5032701;28;20251;-84
2021/11/02 00:38:23;;;;;;;7.50;2.87;;;7.00;86.90;;;;;;5033065;28;20263;-84
2021/11/02 00:40:49;;;;;;;8.47;2.83;;;7.00;86.90;;;;;;5032708;28;20239;-83
2021/11/02 00:43:15;;;;;;;7.93;2.70;;;7.00;86.90;;;;;;5032717;28;20173;-84
2021/11/02 00:45:41;;;;;;;8.30;3.43;;;7.00;86.80;;;;;;5032898;28;20679;-83
2021/11/02 00:48:12;;;;;;;13.03;2.90;;;6.90;86.80;;;;;;5032710;28;20663;-83
2021/11/02 00:50:40;;;;;;;8.63;2.77;;;6.80;87.00;;;;;;5033073;28;20176;-83
2021/11/02 00:53:07;;;;;;;6.53;2.73;;;6.80;87.20;;;;;;5014878;28;20739;-83
2021/11/02 00:55:33;;;;;;;12.00;3.20;;;6.80;87.20;;;;;;5032541;28;20649;-83
2021/11/02 00:58:02;;;;;;;9.47;3.30;;;6.80;87.10;;;;;;5032561;28;20193;-83
2021/11/02 01:00:28;;;;;;;5.80;2.47;;;6.80;87.00;;;;;;5032597;28;20223;-83
2021/11/02 01:02:53;;;;;;;10.20;2.53;;;6.90;87.00;;;;;;5032558;28;20180;-83
2021/11/02 01:05:19;;;;;;;9.93;2.60;;;6.90;86.90;;;;;;5014542;28;20251;-83
2021/11/02 01:07:44;;;;;;;9.97;3.10;;;6.90;87.00;;;;;;5018134;28;20176;-83
2021/11/02 01:10:15;;;;;;;5.30;2.63;;;6.90;87.00;;;;;;5018753;28;20215;-83
2021/11/02 01:12:42;;;;;;;6.37;2.90;;;6.90;86.90;;;;;;5018383;28;20200;-83
2021/11/02 01:15:08;;;;;;;9.17;2.80;;;6.90;87.00;;;;;;5036004;28;20193;-83
2021/11/02 01:17:34;;;;;;;5.87;2.90;;;6.90;87.30;;;;;;5018291;28;20267;-83
2021/11/02 01:20:01;;;;;;;9.27;2.90;;;6.90;87.10;;;;;;5035980;28;20175;-83
2021/11/02 01:22:26;;;;;;;10.07;3.10;;;6.90;87.10;;;;;;5018206;28;20573;-83
2021/11/02 01:24:52;;;;;;;7.77;2.90;;;6.90;87.10;;;;;;5035851;28;20188;-83
2021/11/02 01:27:18;;;;;;;6.20;2.80;;;6.80;87.20;;;;;;5035799;28;20192;-83
2021/11/02 01:29:43;;;;;;;10.77;3.40;;;6.90;87.20;;;;;;5035821;28;20176;-84
2021/11/02 01:32:09;;;;;;;7.40;2.80;;;6.90;87.30;;;;;;5018003;28;20177;-83
2021/11/02 01:34:35;;;;;;;9.70;2.97;;;6.90;87.20;;;;;;5017866;28;20184;-83
2021/11/02 01:37:01;;;;;;;10.17;2.93;;;6.80;87.40;;;;;;5035677;28;20180;-83
2021/11/02 01:39:27;;;;;;;6.60;2.97;;;6.90;87.50;;;;;;5035609;28;20173;-83
2021/11/02 01:41:53;;;;;;;11.47;3.13;;;6.80;87.50;;;;;;5035780;28;20204;-84
2021/11/02 01:44:19;;;;;;;5.50;2.33;;;6.70;87.70;;;;;;5017766;28;20173;-83
2021/11/02 01:46:45;;;;;;;6.73;3.40;;;6.70;87.70;;;;;;5035399;28;20688;-83
2021/11/02 01:49:12;;;;;;;10.33;2.87;;;6.60;87.90;;;;;;5035459;28;20160;-83
2021/11/02 01:51:39;;;;;;;6.63;3.00;;;6.50;87.90;;;;;;5017597;28;20172;-83
2021/11/02 01:54:06;;;;;;;14.30;3.20;;;6.50;88.00;;;;;;5035327;28;20173;-83
2021/11/02 01:56:33;;;;;;;11.90;3.33;;;6.40;88.00;;;;;;5017447;28;20610;-84
2021/11/02 01:59:00;;;;;;;6.70;3.50;;;6.50;87.90;;;;;;5035305;28;20219;-83
2021/11/02 02:01:34;;;;;;;10.23;2.77;;;6.50;87.80;;;;;;5017323;28;20291;-84
2021/11/02 02:04:12;;;;;;;9.60;2.93;;;6.50;87.80;;;;;;5035228;28;20617;-83
2021/11/02 02:07:07;;;;;;;6.73;2.97;;;6.50;88.00;;;;;;5017300;28;20228;-83
2021/11/02 02:09:48;;;;;;;9.77;3.00;;;6.50;88.10;;;;;;5035085;28;20153;-83
2021/11/02 02:12:57;;;;;;;9.73;2.97;;;6.50;88.20;;;;;;5035381;28;20248;-83
2021/11/02 02:15:36;;;;;;;11.57;3.00;;;6.50;88.10;;;;;;5016519;28;20707;-83
2021/11/02 02:18:38;;;;;;;8.53;3.73;;;6.50;88.00;;;;;;5034503;28;20165;-83
2021/11/02 02:21:23;;;;;;;9.17;3.20;;;6.50;88.10;;;;;;4993332;28;20684;-83
2021/11/02 02:24:09;;;;;;;6.40;2.80;;;6.50;88.10;;;;;;5034785;28;20165;-84
2021/11/02 02:26:58;;;;;;;6.97;2.80;;;6.50;88.00;;;;;;5017049;28;20193;-83
2021/11/02 02:29:25;;;;;;;6.20;2.93;;;6.50;88.00;;;;;;5034707;28;20179;-83
2021/11/02 02:31:53;;;;;;;5.60;2.83;;;6.40;88.00;;;;;;5016907;28;20246;-83
2021/11/02 02:34:20;;;;;;;6.13;3.00;;;6.40;88.00;;;;;;5016769;28;20287;-83
2021/11/02 02:36:50;;;;;;;8.00;3.27;;;6.40;88.10;;;;;;5034779;28;20188;-83
2021/11/02 02:39:18;;;;;;;10.03;3.20;;;6.40;88.20;;;;;;5034796;28;20210;-83
2021/11/02 02:41:44;;;;;;;7.13;3.07;;;6.40;88.60;;;;;;5034411;28;20286;-83
2021/11/02 02:44:12;;;;;;;10.80;3.20;;;6.40;88.60;;;;;;5034385;28;20192;-84
2021/11/02 02:46:39;;;;;;;6.60;3.20;;;6.40;88.80;;;;;;5016587;28;20195;-83
2021/11/02 02:49:08;;;;;;;4.97;3.10;;;6.40;88.70;;;;;;5016537;28;20231;-83
2021/11/02 02:51:35;;;;;;;10.07;3.40;;;6.30;88.80;;;;;;5016571;28;20683;-83
2021/11/02 02:54:01;;;;;;;7.30;3.43;;;6.40;88.80;;;;;;5016466;28;20258;-83
2021/11/02 02:56:29;;;;;;;9.60;3.80;;;6.30;89.10;;;;;;5034150;28;20279;-83
2021/11/02 02:59:00;;;;;;;10.90;3.30;;;6.20;89.30;;;;;;5034308;28;20191;-83
2021/11/02 03:01:27;;;;;;;11.37;3.30;;;6.10;89.60;;;;;;5034616;28;20223;-83
2021/11/02 03:04:18;;;;;;;20.93;3.47;;;6.10;89.60;;;;;;5016300;28;20176;-83
2021/11/02 03:06:46;;;;;;;7.43;3.33;;;6.00;89.60;;;;;;5016265;28;20245;-83
2021/11/02 03:09:12;;;;;;;8.37;3.70;;;6.00;89.80;;;;;;5016032;28;20266;-83
2021/11/02 03:11:39;;;;;;;9.77;3.37;;;6.00;89.80;;;;;;5033902;28;20263;-83
2021/11/02 03:14:11;;;;;;;8.23;3.73;;;6.10;89.90;;;;;;5033897;28;20175;-83
2021/11/02 03:54:38;;;;;;;12.10;4.10;;;6.00;90.40;;;;;;5033522;28;20179;-84
2021/11/02 04:00:48;;;;;;;6.70;3.47;;;5.90;90.30;;;;;;5033738;28;20170;-84
2021/11/02 05:47:10;;;;;;;12.90;4.03;;;5.20;89.70;;;;;;5035525;28;20250;-83
2021/11/02 05:57:46;;;;;;;10.77;4.43;;;5.30;90.10;;;;;;5035289;28;20523;-84
2021/11/02 06:00:30;;;;;;;11.17;4.83;;;5.20;90.30;;;;;;5035303;28;20158;-84
2021/11/02 06:05:50;;;;;;;10.93;4.17;;;5.10;90.20;;;;;;5035168;28;20781;-84
2021/11/02 06:27:55;;;;;;;9.53;4.07;;;4.80;90.80;;;;;;5035063;28;20154;-84
2021/11/02 06:30:30;;;;;;;7.50;3.83;;;4.80;90.80;;;;;;5035000;28;20154;-84
2021/11/02 06:33:04;;;;;;;10.13;4.60;;;4.80;90.80;;;;;;5016891;28;20162;-84
2021/11/02 06:35:47;;;;;;;11.43;4.30;;;4.80;90.60;;;;;;5016738;28;20238;-84
2021/11/02 07:17:34;;;;;;;10.10;5.90;;;5.00;92.20;;;;;;5034138;28;20212;-84
2021/11/02 07:23:49;;;;;;;11.30;5.43;;;5.10;92.30;;;;;;4953467;29;20301;-83
2021/11/02 07:26:17;;;;;;;15.13;6.00;;;5.20;92.30;;;;;;5019943;28;20716;-84
2021/11/02 08:47:24;;;;;;;16.30;7.60;;;7.30;91.50;;;;;;5033245;28;20184;-84
2021/11/02 08:49:50;;;;;;;12.80;8.03;;;7.30;91.20;;;;;;5014914;28;20233;-84
2021/11/02 08:52:18;;;;;;;16.30;7.57;;;7.30;91.20;;;;;;5033638;28;20177;-84
2021/11/02 08:54:48;;;;;;;19.80;8.27;;;7.50;91.10;;;;;;5033485;28;20182;-87
2021/11/02 08:57:14;;;;;;;17.30;7.10;;;7.60;91.00;;;;;;5015420;28;20246;-84
2021/11/02 08:59:40;;;;;;;16.37;8.43;;;7.60;90.70;;;;;;5015695;28;20184;-86
2021/11/02 09:02:11;;;;;;;15.17;7.87;;;7.70;90.70;;;;;;5033404;28;20295;-86
2021/11/02 09:05:02;;;;;;;16.03;7.80;;;7.80;90.40;;;;;;5034029;28;20165;-84
2021/11/02 09:07:28;;;;;;;18.13;7.57;;;7.80;90.20;;;;;;5015497;28;20251;-84
2021/11/02 09:09:56;;;;;;;18.47;7.97;;;7.80;90.10;;;;;;5033168;28;20649;-87
2021/11/02 09:12:32;;;;;;;13.20;7.80;;;7.70;89.90;;;;;;5032995;28;20168;-86
2021/11/02 09:15:02;;;;;;;17.80;8.13;;;7.70;90.20;;;;;;5033102;28;20203;-87
2021/11/02 09:17:33;;;;;;;18.40;7.70;;;7.60;89.90;;;;;;5015339;28;20219;-87
2021/11/02 09:20:02;;;;;;;12.53;7.70;;;7.60;90.10;;;;;;5015167;28;20184;-86
2021/11/02 09:22:30;;;;;;;13.03;7.23;;;7.60;90.00;;;;;;5015146;28;20704;-85
2021/11/02 09:24:57;;;;;;;14.07;6.57;;;7.70;90.20;;;;;;5033131;28;20275;-88
2021/11/02 09:27:25;;;;;;;14.10;7.07;;;7.60;90.20;;;;;;5033963;28;20641;-84
2021/11/02 09:29:50;;;;;;;14.50;8.27;;;7.60;90.30;;;;;;5018110;28;20218;-84
2021/11/02 09:32:17;;;;;;;14.67;7.53;;;7.70;90.40;;;;;;5018167;28;20184;-83
2021/11/02 09:34:43;;;;;;;17.77;7.40;;;7.60;90.30;;;;;;5035719;28;20180;-84
2021/11/02 09:37:24;;;;;;;16.53;8.00;;;7.60;90.40;;;;;;5018077;28;20700;-83
2021/11/02 09:39:51;;;;;;;12.27;7.87;;;7.60;90.50;;;;;;5036073;28;20165;-83
2021/11/02 09:42:39;;;;;;;17.00;7.87;;;7.60;90.50;;;;;;5035705;28;20216;-85
2021/11/02 09:45:24;;;;;;;17.63;8.43;;;7.70;90.60;;;;;;5018504;28;20192;-84
2021/11/02 09:48:02;;;;;;;16.57;8.30;;;7.60;90.60;;;;;;5017954;28;20168;-85
2021/11/02 09:50:48;;;;;;;20.50;8.60;;;7.60;90.60;;;;;;5035842;28;20160;-85
2021/11/02 09:53:36;;;;;;;18.37;8.83;;;7.60;90.50;;;;;;5035509;28;20680;-84
2021/11/02 09:56:07;;;;;;;11.57;7.80;;;7.60;90.50;;;;;;5017553;28;20703;-87
2021/11/02 09:58:55;;;;;;;20.10;9.33;;;7.70;90.50;;;;;;5017624;28;20679;-85
2021/11/02 10:01:47;;;;;;;14.00;8.60;;;7.70;90.60;;;;;;5017494;28;20188;-85
2021/11/02 10:04:48;;;;;;;16.97;8.47;;;7.80;90.60;;;;;;5017584;28;20189;-84
2021/11/02 10:07:34;;;;;;;18.13;8.73;;;8.00;90.40;;;;;;5035663;28;20187;-84
2021/11/02 10:10:15;;;;;;;13.37;8.27;;;8.00;90.30;;;;;;5017321;28;20577;-85
2021/11/02 10:13:01;;;;;;;16.93;8.20;;;8.30;90.30;;;;;;5017299;28;20160;-85
2021/11/02 10:15:41;;;;;;;17.77;8.40;;;8.60;90.20;;;;;;5034992;28;20196;-85
2021/11/02 10:18:54;;;;;;;12.60;8.97;;;8.90;90.00;;;;;;5035053;28;20179;-85
2021/11/02 10:21:40;;;;;;;17.20;7.70;;;9.00;89.30;;;;;;4989486;28;20219;-85
2021/11/02 10:24:19;;;;;;;14.17;7.77;;;9.20;88.60;;;;;;5017054;28;20157;-85
2021/11/02 10:27:02;;;;;;;17.57;7.40;;;9.20;87.10;;;;;;5016975;28;20220;-85
2021/11/02 10:29:39;;;;;;;12.73;7.57;;;9.30;87.70;;;;;;5017028;28;20637;-85
2021/11/02 10:32:09;;;;;;;12.27;7.70;;;9.50;87.20;;;;;;5035004;28;20166;-85
2021/11/02 10:34:41;;;;;;;16.17;6.97;;;9.70;86.80;;;;;;5034579;28;20168;-85
2021/11/02 10:37:09;;;;;;;10.87;7.47;;;9.80;86.80;;;;;;5016974;28;20176;-85
2021/11/02 10:40:01;;;;;;;18.20;8.60;;;9.90;86.40;;;;;;5016516;28;20272;-85
2021/11/02 10:42:57;;;;;;;12.87;7.67;;;10.00;85.90;;;;;;5016688;28;20193;-84
2021/11/02 10:45:27;;;;;;;19.03;8.00;;;10.00;85.00;;;;;;5034497;28;20583;-85
2021/11/02 10:48:02;;;;;;;13.57;7.50;;;10.10;84.80;;;;;;5034387;28;20188;-84
2021/11/02 10:50:30;;;;;;;17.03;8.60;;;10.30;84.70;;;;;;5016728;28;20194;-84
2021/11/02 10:52:58;;;;;;;13.00;7.57;;;10.30;84.20;;;;;;5034273;28;20175;-85
2021/11/02 10:55:35;;;;;;;15.30;7.30;;;10.50;83.70;;;;;;5034189;28;20274;-84
2021/11/02 10:58:26;;;;;;;12.80;6.80;;;10.30;83.40;;;;;;5016551;28;20168;-84
2021/11/02 11:00:51;;;;;;;16.47;7.50;;;10.60;83.60;;;;;;5034334;28;20215;-84
2021/11/02 11:03:19;;;;;;;12.67;7.43;;;10.50;83.40;;;;;;5034418;28;20173;-85
2021/11/02 11:05:55;;;;;;;11.70;6.60;;;10.70;83.30;;;;;;5016124;28;20685;-85
2021/11/02 11:08:31;;;;;;;13.27;7.17;;;10.70;82.40;;;;;;5016351;28;20192;-84
2021/11/02 11:11:03;;;;;;;11.77;6.77;;;10.70;82.70;;;;;;5034071;28;20144;-84
2021/11/02 11:13:30;;;;;;;14.63;6.93;;;10.40;82.50;;;;;;5016332;28;20161;-86
2021/11/02 11:16:08;;;;;;;11.77;7.57;;;10.40;82.60;;;;;;5016090;28;20204;-84
2021/11/02 11:19:02;;;;;;;17.37;7.80;;;10.60;84.00;;;;;;5034131;28;20206;-85
2021/11/02 11:21:34;;;;;;;14.83;5.90;;;10.90;83.30;;;;;;5034071;28;20554;-85
2021/11/02 11:24:27;;;;;;;14.13;7.03;;;11.10;83.20;;;;;;5033955;28;20165;-84
2021/11/02 11:26:55;;;;;;;11.53;6.47;;;11.10;82.70;;;;;;5022851;28;20232;-85
2021/11/02 11:29:22;;;;;;;10.70;5.97;;;11.30;82.80;;;;;;5015974;28;20177;-85
2021/11/02 11:31:54;;;;;;;13.33;6.13;;;11.40;81.70;;;;;;5015928;28;20184;-85
2021/11/02 11:34:36;;;;;;;9.07;5.60;;;11.30;81.00;;;;;;5016313;28;20306;-85
2021/11/02 11:37:03;;;;;;;12.90;6.97;;;11.60;81.00;;;;;;5016178;28;20250;-85
2021/11/02 11:39:30;;;;;;;13.37;6.03;;;11.80;80.80;;;;;;5015965;28;20187;-86
2021/11/02 11:41:57;;;;;;;15.63;7.07;;;11.80;80.50;;;;;;5033549;28;20196;-85
2021/11/02 11:44:23;;;;;;;12.80;5.90;;;12.00;80.10;;;;;;5033533;28;20196;-85
2021/11/02 11:47:01;;;;;;;13.63;6.40;;;12.00;79.60;;;;;;5033666;28;20195;-87
2021/11/02 11:49:30;;;;;;;11.03;6.43;;;11.90;78.90;;;;;;5015587;28;20179;-86
2021/11/02 11:51:57;;;;;;;11.73;6.40;;;11.90;79.90;;;;;;5015692;28;20219;-84
2021/11/02 11:54:28;;;;;;;10.73;6.37;;;11.90;79.20;;;;;;5015729;28;20172;-85
2021/11/02 11:57:00;;;;;;;17.70;6.57;;;12.10;79.30;;;;;;5015604;28;20752;-85
2021/11/02 11:59:28;;;;;;;10.33;5.90;;;12.10;78.70;;;;;;5033633;28;20149;-85
2021/11/02 12:02:09;;;;;;;9.93;5.90;;;11.90;79.70;;;;;;5033468;28;20224;-84
2021/11/02 12:04:52;;;;;;;11.73;5.73;;;12.20;78.80;;;;;;5015598;28;20167;-85
2021/11/02 12:07:44;;;;;;;11.03;5.90;;;12.60;77.80;;;;;;5033556;28;20188;-86
2021/11/02 12:10:11;;;;;;;10.97;5.50;;;12.70;77.50;;;;;;5015568;28;20165;-85
2021/11/02 12:12:40;;;;;;;9.53;5.27;;;12.70;76.00;;;;;;5015505;28;20181;-84
2021/11/02 12:15:11;;;;;;;7.80;4.60;;;12.50;76.10;;;;;;5015319;28;20202;-85
2021/11/02 12:17:42;;;;;;;10.80;5.17;;;12.30;77.20;;;;;;5033073;28;20199;-85
2021/11/02 12:20:11;;;;;;;8.30;5.30;;;12.20;77.70;;;;;;5033048;28;20172;-85
2021/11/02 12:22:54;;;;;;;10.80;5.57;;;12.30;76.60;;;;;;5032956;28;20223;-85
2021/11/02 12:25:31;;;;;;;10.60;5.73;;;12.60;76.80;;;;;;5015179;28;20192;-85
2021/11/02 12:27:58;;;;;;;15.60;5.00;;;12.80;75.40;;;;;;5033177;28;20152;-85
2021/11/02 12:30:25;;;;;;;11.57;5.50;;;12.80;75.10;;;;;;5015327;28;20211;-84
2021/11/02 12:32:56;;;;;;;13.63;4.87;;;12.50;75.80;;;;;;5033179;28;20172;-85
2021/11/02 12:35:32;;;;;;;8.77;4.37;;;12.70;75.40;;;;;;5032945;28;20195;-86
2021/11/02 12:38:02;;;;;;;9.20;4.60;;;12.80;74.00;;;;;;5033070;28;20596;-85
2021/11/02 12:40:34;;;;;;;11.67;4.50;;;12.80;73.80;;;;;;5032871;28;20173;-84
2021/11/02 12:42:59;;;;;;;15.27;7.67;;;12.40;74.90;;;;;;5015149;28;20223;-84
2021/11/02 12:45:27;;;;;;;14.33;5.70;;;12.50;75.20;;;;;;5015054;28;20225;-84
2021/11/02 12:47:59;;;;;;;8.73;4.17;;;12.80;75.60;;;;;;5032784;28;20169;-84
2021/11/02 12:50:30;;;;;;;12.57;4.03;;;12.90;74.00;;;;;;5015162;28;20168;-84
2021/11/02 12:52:57;;;;;;;8.00;4.20;;;12.80;74.10;;;;;;5015427;28;20587;-84
2021/11/02 12:55:30;;;;;;;7.90;4.17;;;12.90;74.80;;;;;;5032821;28;20192;-84
2021/11/02 12:58:11;;;;;;;7.90;3.80;;;13.00;73.50;;;;;;5033039;28;20199;-83
2021/11/02 13:00:50;;;;;;;7.23;3.87;;;12.60;74.00;;;;;;5032724;28;20251;-84
2021/11/02 13:03:22;;;;;;;10.13;4.10;;;12.70;73.90;;;;;;5036482;28;20184;-84
2021/11/02 13:06:03;;;;;;;10.80;4.30;;;12.70;73.70;;;;;;5018366;28;20559;-84
2021/11/02 13:08:30;;;;;;;5.70;3.50;;;12.70;73.90;;;;;;5036476;28;20169;-84
2021/11/02 13:11:10;;;;;;;9.70;3.30;;;12.80;73.90;;;;;;5036376;28;20256;-84
2021/11/02 13:14:07;;;;;;;8.20;3.73;;;13.00;73.20;;;;;;5036405;28;20559;-84
2021/11/02 13:16:53;;;;;;;9.10;4.10;;;12.90;72.50;;;;;;5036210;28;20200;-84
2021/11/02 13:19:21;;;;;;;12.27;6.17;;;12.90;72.50;;;;;;5008150;28;20211;-84
2021/11/02 13:21:48;;;;;;;9.93;4.47;;;13.10;73.90;;;;;;5018340;28;20211;-84
2021/11/02 13:24:17;;;;;;;9.80;3.60;;;13.10;73.90;;;;;;5036485;28;20165;-84
2021/11/02 13:26:46;;;;;;;12.60;3.70;;;13.20;70.90;;;;;;5036174;28;20189;-85
2021/11/02 13:29:23;;;;;;;6.17;4.03;;;13.10;72.00;;;;;;5037028;28;20260;-84
2021/11/02 13:32:03;;;;;;;7.27;4.77;;;12.90;72.50;;;;;;5018548;28;20229;-84
2021/11/02 13:34:35;;;;;;;8.07;3.97;;;12.80;71.90;;;;;;5018495;28;20172;-84
2021/11/02 13:37:06;;;;;;;8.00;3.73;;;12.80;72.80;;;;;;5036065;28;20255;-84
2021/11/02 13:39:59;;;;;;;7.83;3.70;;;12.90;72.40;;;;;;5018581;28;20578;-85
2021/11/02 13:42:47;;;;;;;5.93;3.40;;;12.90;72.50;;;;;;5018254;28;20570;-84
2021/11/02 13:45:16;;;;;;;7.37;3.63;;;13.00;73.30;;;;;;5018304;28;20192;-84
2021/11/02 13:47:43;;;;;;;7.13;3.50;;;13.10;72.60;;;;;;5036120;28;20676;-84
2021/11/02 13:50:09;;;;;;;8.90;3.87;;;13.00;72.20;;;;;;5018210;28;20169;-84
2021/11/02 13:52:35;;;;;;;11.33;3.70;;;12.80;73.10;;;;;;5018368;28;20533;-84
2021/11/02 13:55:04;;;;;;;7.70;3.23;;;12.80;73.70;;;;;;5018392;28;20207;-84
2021/11/02 13:57:29;;;;;;;6.43;3.77;;;12.70;72.60;;;;;;5036050;28;20173;-84
2021/11/02 13:59:55;;;;;;;7.00;3.27;;;12.50;73.20;;;;;;5018025;28;20271;-84
2021/11/02 14:02:24;;;;;;;7.47;3.30;;;12.20;74.80;;;;;;5035520;28;20200;-84
2021/11/02 14:04:51;;;;;;;11.77;4.20;;;12.20;75.50;;;;;;5035439;28;20173;-84
2021/11/02 14:07:18;;;;;;;9.23;4.00;;;12.30;75.60;;;;;;5018077;28;20161;-84
2021/11/02 14:10:08;;;;;;;12.63;3.67;;;12.10;76.00;;;;;;5017891;28;20216;-84
2021/11/02 14:12:40;;;;;;;11.60;4.53;;;11.90;76.50;;;;;;5017152;28;20169;-84
2021/11/02 14:15:12;;;;;;;7.00;4.30;;;11.80;77.00;;;;;;5019600;28;20193;-84
2021/11/02 14:17:39;;;;;;;9.40;3.80;;;11.70;77.40;;;;;;5017910;28;20188;-84
2021/11/02 14:20:05;;;;;;;9.87;3.97;;;11.70;77.70;;;;;;5035297;28;20248;-84
2021/11/02 14:22:50;;;;;;;13.40;4.20;;;11.70;77.60;;;;;;5034933;28;20204;-84
2021/11/02 14:25:21;;;;;;;14.03;5.10;;;11.50;78.50;;;;;;5034985;28;20188;-84
2021/11/02 14:27:49;;;;;;;10.60;4.20;;;11.50;78.60;;;;;;5035017;28;20154;-85
2021/11/02 14:30:31;;;;;;;9.97;4.33;;;11.50;77.90;;;;;;5017211;28;20229;-84
2021/11/02 14:32:58;;;;;;;10.57;4.67;;;11.40;78.30;;;;;;5035064;28;20188;-85
2021/11/02 14:35:44;;;;;;;18.37;5.30;;;11.50;78.50;;;;;;5016993;28;20196;-84
2021/11/02 14:38:17;;;;;;;9.73;4.13;;;11.50;78.60;;;;;;5034825;28;20615;-85
2021/11/02 14:40:50;;;;;;;12.93;4.17;;;11.30;79.30;;;;;;5034924;28;20235;-84
2021/11/02 14:43:17;;;;;;;9.90;4.67;;;11.20;79.40;;;;;;5034650;28;20534;-84
2021/11/02 14:45:44;;;;;;;8.77;4.30;;;11.10;79.90;;;;;;5016810;28;20230;-85
2021/11/02 14:48:25;;;;;;;11.77;4.60;;;11.00;80.50;;;;;;5034743;28;20218;-84
2021/11/02 14:50:51;;;;;;;11.60;4.93;;;11.00;80.80;;;;;;5016711;28;20200;-85
2021/11/02 14:53:30;;;;;;;9.73;4.70;;;10.90;81.30;;;;;;5016758;28;20184;-84
2021/11/02 14:56:07;;;;;;;19.17;4.93;;;10.90;81.40;;;;;;5034795;28;20594;-84
2021/11/02 14:58:39;;;;;;;8.50;4.33;;;11.00;81.30;;;;;;5016649;28;20524;-85
2021/11/02 15:01:06;;;;;;;7.90;3.93;;;11.10;81.00;;;;;;5034571;28;20180;-85
2021/11/02 15:03:33;;;;;;;6.43;3.43;;;11.20;80.70;;;;;;5016545;28;20230;-85
2021/11/02 15:06:06;;;;;;;9.27;3.77;;;11.20;80.50;;;;;;5034004;28;20200;-85
2021/11/02 15:08:35;;;;;;;16.27;4.93;;;11.20;79.90;;;;;;5034128;28;20179;-85
2021/11/02 15:11:06;;;;;;;11.17;4.40;;;11.00;79.80;;;;;;5034072;28;20257;-85
2021/11/02 15:13:32;;;;;;;7.73;4.30;;;10.80;79.90;;;;;;5016358;28;20187;-85
2021/11/02 15:16:01;;;;;;;16.00;5.30;;;10.70;80.70;;;;;;5016305;28;20631;-84
2021/11/02 15:18:47;;;;;;;12.20;5.60;;;10.60;81.00;;;;;;5016331;28;20207;-85
2021/11/02 15:21:22;;;;;;;11.27;5.17;;;10.50;81.50;;;;;;5034137;28;20169;-84
2021/11/02 15:23:51;;;;;;;14.37;5.27;;;10.30;82.10;;;;;;5016141;28;20165;-84
2021/11/02 15:26:18;;;;;;;11.57;5.20;;;10.20;82.40;;;;;;5033114;28;20192;-84
2021/11/02 15:28:46;;;;;;;10.53;4.93;;;10.20;82.60;;;;;;5016073;28;20181;-85
2021/11/02 15:31:14;;;;;;;11.13;5.37;;;10.10;82.70;;;;;;5033807;28;20179;-84
2021/11/02 15:33:42;;;;;;;15.53;5.47;;;10.00;83.10;;;;;;5015987;28;20180;-85
2021/11/02 15:36:19;;;;;;;11.20;5.43;;;9.90;83.40;;;;;;5034174;28;20267;-84
2021/11/02 15:39:06;;;;;;;12.40;5.43;;;9.80;83.90;;;;;;5034133;28;20585;-85
2021/11/02 15:41:33;;;;;;;11.37;6.13;;;9.90;83.70;;;;;;5016100;28;20196;-84
2021/11/02 15:44:12;;;;;;;12.30;5.70;;;9.80;84.10;;;;;;5034125;28;20177;-85
2021/11/02 15:46:40;;;;;;;10.67;5.60;;;9.80;83.90;;;;;;5016237;28;20204;-85
2021/11/02 15:49:10;;;;;;;7.13;5.63;;;9.50;84.30;;;;;;5034013;28;20188;-84
2021/11/02 15:51:38;;;;;;;10.00;5.90;;;9.30;85.30;;;;;;5033979;28;20229;-84
2021/11/02 15:54:09;;;;;;;10.10;5.53;;;9.50;85.20;;;;;;5034383;28;20645;-84
2021/11/02 15:56:35;;;;;;;13.90;5.70;;;9.60;85.00;;;;;;5016204;28;20196;-84
2021/11/02 15:59:05;;;;;;;11.23;6.27;;;9.50;84.60;;;;;;5016434;28;20200;-84
2021/11/02 16:01:43;;;;;;;10.23;6.27;;;9.40;85.00;;;;;;5015882;28;20200;-84
2021/11/02 16:04:18;;;;;;;8.90;5.97;;;9.40;85.10;;;;;;5015807;28;20192;-84
2021/11/02 16:07:07;;;;;;;12.53;6.23;;;9.30;85.40;;;;;;5033361;28;20671;-85
2021/11/02 16:09:53;;;;;;;11.03;5.93;;;9.30;85.20;;;;;;5033754;28;20189;-85
2021/11/02 16:12:26;;;;;;;11.93;6.00;;;9.30;84.90;;;;;;5033735;28;20614;-84
2021/11/02 16:14:55;;;;;;;10.50;6.07;;;9.30;84.90;;;;;;5015819;28;20179;-84
2021/11/02 16:17:22;;;;;;;7.30;5.30;;;9.10;85.00;;;;;;5033504;28;20705;-84
2021/11/02 16:19:50;;;;;;;11.10;6.10;;;9.10;85.30;;;;;;5015743;28;20642;-84
2021/11/02 16:22:18;;;;;;;15.27;6.30;;;9.00;85.50;;;;;;5015447;28;20212;-84
2021/11/02 16:24:44;;;;;;;12.50;6.87;;;9.00;85.50;;;;;;5032986;28;20173;-84
2021/11/02 16:27:37;;;;;;;14.33;5.57;;;9.00;84.80;;;;;;5015441;28;20187;-84
2021/11/02 16:30:16;;;;;;;10.73;5.07;;;9.00;84.80;;;;;;5013216;28;20533;-84
2021/11/02 16:32:46;;;;;;;7.40;4.67;;;9.00;83.90;;;;;;5015598;28;20176;-86
2021/11/02 16:35:11;;;;;;;18.53;5.83;;;9.00;83.20;;;;;;5033113;28;20612;-85
2021/11/02 16:37:40;;;;;;;23.77;5.70;;;8.80;82.90;;;;;;5036486;28;20234;-85
2021/11/02 16:40:24;;;;;;;6.40;4.67;;;8.70;82.70;;;;;;5037189;28;20180;-85
2021/11/02 16:43:10;;;;;;;11.77;5.00;;;8.60;82.70;;;;;;5037048;28;20200;-85
2021/11/02 16:45:36;;;;;;;10.93;4.90;;;8.50;82.50;;;;;;5037509;28;20192;-85
2021/11/02 16:48:07;;;;;;;10.83;4.37;;;8.40;82.20;;;;;;5019305;28;20181;-85
2021/11/02 16:50:38;;;;;;;7.60;4.43;;;8.30;82.60;;;;;;5019446;28;20175;-85
2021/11/02 16:53:11;;;;;;;9.17;4.33;;;8.30;82.60;;;;;;5037610;28;20176;-84
2021/11/02 16:55:40;;;;;;;8.33;5.03;;;8.30;82.60;;;;;;5019658;28;20734;-84
2021/11/02 16:58:17;;;;;;;10.33;4.27;;;8.30;82.60;;;;;;5037382;28;20180;-84
2021/11/02 17:00:44;;;;;;;7.90;4.80;;;8.30;82.40;;;;;;5019404;28;20211;-84
2021/11/02 17:03:09;;;;;;;11.00;5.33;;;8.40;82.10;;;;;;5037221;28;20203;-84
2021/11/02 17:05:37;;;;;;;11.23;6.80;;;8.40;81.80;;;;;;5019642;28;20212;-84
2021/11/02 17:08:04;;;;;;;10.60;5.87;;;8.50;81.70;;;;;;5037237;28;20169;-84
2021/11/02 17:10:42;;;;;;;12.37;6.40;;;8.50;81.70;;;;;;5019519;28;20679;-85
2021/11/02 17:13:16;;;;;;;13.50;6.17;;;8.60;82.00;;;;;;5070965;22;20234;-86
2021/11/02 17:15:46;;;;;;;8.20;5.53;;;8.60;81.90;;;;;;5058345;28;20178;-87
2021/11/02 17:18:15;;;;;;;9.13;6.13;;;8.60;81.80;;;;;;5058172;28;20174;-87
2021/11/02 17:20:44;;;;;;;14.23;6.50;;;8.60;81.80;;;;;;5059352;28;20232;-86
2021/11/02 17:23:10;;;;;;;8.90;5.87;;;8.50;82.00;;;;;;5058006;28;20207;-87
2021/11/02 17:25:37;;;;;;;9.03;5.97;;;8.40;82.60;;;;;;5058076;28;20182;-87
2021/11/02 17:28:04;;;;;;;11.17;5.93;;;8.40;82.70;;;;;;5057884;28;20213;-86
2021/11/02 17:30:32;;;;;;;7.37;5.20;;;8.50;82.10;;;;;;5058000;28;20176;-87
2021/11/02 17:33:00;;;;;;;10.43;5.73;;;8.70;81.50;;;;;;5057937;28;20626;-87
2021/11/02 17:35:26;;;;;;;9.63;5.50;;;8.80;80.90;;;;;;5057912;28;20186;-87
2021/11/02 17:37:59;;;;;;;9.23;4.80;;;8.70;80.80;;;;;;5057836;28;20199;-86
2021/11/02 17:40:25;;;;;;;8.57;5.27;;;8.70;80.60;;;;;;5057791;28;20583;-87
2021/11/02 17:42:54;;;;;;;11.67;6.17;;;8.70;80.40;;;;;;5057666;28;20197;-87
2021/11/02 17:45:21;;;;;;;10.73;6.03;;;8.60;80.40;;;;;;5057748;28;20232;-87
2021/11/02 17:47:52;;;;;;;9.47;5.50;;;8.50;81.00;;;;;;5074613;28;20196;-87
2021/11/02 17:50:22;;;;;;;10.37;6.10;;;8.40;81.20;;;;;;5057605;28;20171;-87
2021/11/02 17:52:48;;;;;;;12.80;6.80;;;8.40;81.30;;;;;;5075761;28;20186;-87
2021/11/02 17:55:15;;;;;;;9.50;5.53;;;8.30;81.50;;;;;;5057510;28;20655;-87
2021/11/02 17:57:41;;;;;;;8.73;5.10;;;8.20;81.50;;;;;;5075425;28;20643;-87
2021/11/02 18:00:10;;;;;;;7.60;5.87;;;8.10;81.20;;;;;;5057378;28;20175;-87
2021/11/02 18:02:37;;;;;;;10.50;5.50;;;8.00;81.20;;;;;;5075265;28;20203;-87
2021/11/02 18:05:03;;;;;;;12.77;6.47;;;7.90;80.90;;;;;;5057240;28;20220;-87
2021/11/02 18:07:29;;;;;;;9.17;5.50;;;7.80;81.10;;;;;;5057942;28;20171;-87
2021/11/02 18:09:56;;;;;;;8.27;6.33;;;7.70;81.20;;;;;;5075330;28;20175;-87
2021/11/02 18:12:27;;;;;;;7.77;6.30;;;7.70;81.00;;;;;;5075200;28;20665;-87